Time;durP1;ratioP1;P1;durP2;ratioP2;P2;SDS_P1;SDS_P2;PMS_P1;PMS_P2;Temp;Humidity;BMP_temperature;BMP_pressure;BME280_temperature;BME280_humidity;BME280_pressure;Samples;Min_cycle;Max_cycle;Signal;HPM_P1;HPM_P2
2023/02/25 00:01:18;;;;;;;49.75;22.88;;;;;;;4.71;100.00;99618.22;4984653;28;20112;-73
2023/02/25 00:03:43;;;;;;;29.90;22.75;;;;;;;5.34;100.00;99715.06;4984084;28;20081;-73
2023/02/25 00:06:15;;;;;;;31.30;21.00;;;;;;;5.11;100.00;99735.63;4983431;28;20070;-73
2023/02/25 00:08:44;;;;;;;40.28;23.02;;;;;;;4.60;100.00;99614.63;4978917;28;20034;-73
2023/02/25 00:11:12;;;;;;;35.30;23.70;;;;;;;5.34;100.00;99724.56;4982000;28;20058;-73
2023/02/25 00:13:40;;;;;;;47.30;21.52;;;;;;;4.63;100.00;99599.06;4984815;28;20073;-76
2023/02/25 00:16:06;;;;;;;38.03;23.08;;;;;;;5.29;100.00;99722.81;4983423;28;20074;-74
2023/02/25 00:18:33;;;;;;;38.92;22.15;;;;;;;4.52;100.00;99578.19;4983682;28;20053;-75
2023/02/25 00:21:02;;;;;;;39.33;20.83;;;;;;;5.31;100.00;99715.00;4980289;28;20042;-73
2023/02/25 00:23:28;;;;;;;35.92;20.95;;;;;;;4.46;100.00;99566.84;4991068;28;20046;-75
2023/02/25 00:25:58;;;;;;;38.35;22.10;;;;;;;4.36;100.00;99584.94;4983431;28;20085;-75
2023/02/25 00:28:24;;;;;;;50.20;23.40;;;;;;;4.41;100.00;99575.44;4985355;28;20046;-74
2023/02/25 00:30:50;;;;;;;43.95;22.95;;;;;;;5.29;100.00;99693.31;4982693;28;20062;-73
2023/02/25 00:33:15;;;;;;;36.40;22.10;;;;;;;4.53;100.00;99581.66;4982744;28;20058;-74
2023/02/25 00:35:41;;;;;;;42.17;25.02;;;;;;;5.21;100.00;99684.59;4987020;28;20030;-74
2023/02/25 00:38:07;;;;;;;39.88;22.70;;;;;;;4.69;100.00;99595.69;4985816;28;20945;-73
2023/02/25 00:40:36;;;;;;;37.05;22.80;;;;;;;4.52;100.00;99556.50;4983340;28;20049;-74
2023/02/25 00:43:02;;;;;;;36.20;22.05;;;;;;;4.30;100.00;99522.53;4982844;28;20081;-75
2023/02/25 00:45:27;;;;;;;33.78;20.80;;;;;;;4.28;100.00;99531.16;4990852;28;20077;-76
2023/02/25 00:47:53;;;;;;;37.55;22.17;;;;;;;4.38;100.00;99554.66;4998976;28;20034;-75
2023/02/25 00:50:19;;;;;;;42.63;23.70;;;;;;;4.96;100.00;99624.53;5000652;28;20494;-73
2023/02/25 00:52:45;;;;;;;58.25;22.75;;;;;;;4.85;100.00;99606.25;5000720;28;20046;-73
2023/02/25 00:55:10;;;;;;;38.63;22.88;;;;;;;5.07;100.00;99655.84;4993298;28;20051;-74
2023/02/25 00:57:36;;;;;;;32.75;23.27;;;;;;;4.80;100.00;99633.91;4979576;28;20057;-74
2023/02/25 01:00:08;;;;;;;38.08;19.52;;;;;;;4.73;100.00;99619.13;4979912;28;20038;-75
2023/02/25 01:02:33;;;;;;;45.10;22.10;;;;;;;4.20;100.00;99502.50;4996178;28;20053;-75
2023/02/25 01:04:59;;;;;;;44.10;23.83;;;;;;;4.65;100.00;99606.00;4983391;28;20054;-75
2023/02/25 01:07:24;;;;;;;33.63;21.35;;;;;;;4.00;100.00;99491.88;4980693;28;20491;-75
2023/02/25 01:09:53;;;;;;;37.13;23.42;;;;;;;4.15;100.00;99502.47;4984504;28;20088;-75
2023/02/25 01:12:18;;;;;;;37.03;22.85;;;;;;;4.85;100.00;99620.97;4980032;28;20149;-75
2023/02/25 01:14:44;;;;;;;34.08;20.25;;;;;;;4.24;100.00;99517.28;4985677;28;20041;-75
2023/02/25 01:17:09;;;;;;;48.78;22.98;;;;;;;4.78;100.00;99617.44;4983896;28;20057;-75
2023/02/25 01:19:35;;;;;;;37.17;21.38;;;;;;;4.42;100.00;99548.66;4985337;28;20057;-75
2023/02/25 01:22:00;;;;;;;31.90;20.10;;;;;;;4.76;100.00;99587.94;4977890;28;20062;-74
2023/02/25 01:24:29;;;;;;;34.55;20.00;;;;;;;4.82;100.00;99608.81;4982848;28;20077;-75
2023/02/25 01:26:57;;;;;;;41.83;22.70;;;;;;;4.61;100.00;99575.69;4983494;28;20110;-74
2023/02/25 01:29:32;;;;;;;35.95;20.77;;;;;;;4.15;100.00;99471.31;4982164;28;20034;-74
2023/02/25 01:32:00;;;;;;;37.80;21.73;;;;;;;4.14;100.00;99473.88;4983562;28;20497;-72
2023/02/25 01:34:27;;;;;;;35.97;21.08;;;;;;;4.74;100.00;99588.78;4979334;28;20065;-75
2023/02/25 01:36:54;;;;;;;37.80;20.55;;;;;;;4.61;100.00;99595.56;4980440;28;20556;-77
2023/02/25 01:39:21;;;;;;;31.83;21.00;;;;;;;4.17;100.00;99480.00;4982554;28;20054;-74
2023/02/25 01:41:49;;;;;;;40.67;21.02;;;;;;;4.73;100.00;99569.75;4983324;28;20041;-74
2023/02/25 01:44:21;;;;;;;40.08;22.50;;;;;;;4.09;100.00;99467.78;4980151;28;20049;-74
2023/02/25 01:46:49;;;;;;;31.92;19.42;;;;;;;4.77;100.00;99594.00;4980439;28;20046;-76
2023/02/25 01:49:29;;;;;;;39.28;23.00;;;;;;;4.78;100.00;99591.44;4992157;28;20124;-76
2023/02/25 01:52:05;;;;;;;35.53;21.00;;;;;;;4.58;100.00;99598.16;4990697;28;20139;-73
2023/02/25 01:54:35;;;;;;;33.72;19.48;;;;;;;4.63;100.00;99557.50;4997268;28;20049;-75
2023/02/25 01:57:04;;;;;;;42.83;20.08;;;;;;;4.79;100.00;99576.72;5000440;28;20859;-73
2023/02/25 01:59:30;;;;;;;36.35;20.42;;;;;;;4.01;100.00;99452.97;4997357;28;20038;-75
2023/02/25 02:01:56;;;;;;;32.95;20.73;;;;;;;3.95;100.00;99434.75;4999634;28;20046;-75
2023/02/25 02:04:23;;;;;;;39.80;21.80;;;;;;;4.31;100.00;99552.84;4993631;28;20050;-75
2023/02/25 02:06:50;;;;;;;44.28;21.00;;;;;;;4.40;100.00;99549.44;4978723;28;20141;-74
2023/02/25 02:09:19;;;;;;;36.50;20.95;;;;;;;4.63;100.00;99562.69;4988563;28;20042;-74
2023/02/25 02:11:44;;;;;;;27.00;18.65;;;;;;;4.43;100.00;99526.13;4983693;28;20038;-75
2023/02/25 02:14:15;;;;;;;36.80;19.20;;;;;;;3.89;100.00;99470.16;4980734;28;20560;-76
2023/02/25 02:17:17;;;;;;;33.85;18.88;;;;;;;4.34;100.00;99559.78;4985011;28;20502;-75
2023/02/25 02:19:48;;;;;;;47.40;19.45;;;;;;;4.62;100.00;99569.63;4985317;28;20054;-75
2023/02/25 02:22:30;;;;;;;38.97;20.10;;;;;;;3.72;100.00;99444.00;4980737;28;20058;-75
2023/02/25 02:25:17;;;;;;;39.55;20.35;;;;;;;4.63;100.00;99554.91;4977359;28;20506;-75
2023/02/25 02:27:45;;;;;;;38.80;20.85;;;;;;;4.63;100.00;99566.16;4977631;28;20113;-76
2023/02/25 02:30:29;;;;;;;43.30;21.00;;;;;;;4.68;100.00;99558.41;4986882;28;20380;-76
2023/02/25 02:33:12;;;;;;;36.00;20.85;;;;;;;4.67;100.00;99559.28;4987025;28;20085;-76
2023/02/25 02:35:56;;;;;;;34.92;19.02;;;;;;;4.66;100.00;99562.75;4984385;28;20034;-76
2023/02/25 02:38:46;;;;;;;44.47;22.38;;;;;;;4.64;100.00;99569.66;4989988;28;20065;-76
2023/02/25 02:41:49;;;;;;;37.30;21.88;;;;;;;4.56;100.00;99553.97;5005413;28;20058;-74
2023/02/25 02:44:41;;;;;;;41.10;21.08;;;;;;;4.61;100.00;99538.41;5002931;28;20050;-74
2023/02/25 02:47:24;;;;;;;36.58;20.50;;;;;;;4.01;100.00;99442.59;4996677;28;20136;-76
2023/02/25 02:49:55;;;;;;;36.03;21.73;;;;;;;4.30;100.00;99512.13;5004777;28;20501;-76
2023/02/25 02:52:28;;;;;;;39.90;22.15;;;;;;;4.40;100.00;99542.56;5009167;28;20431;-74
2023/02/25 02:55:03;;;;;;;37.70;19.80;;;;;;;3.67;100.00;99410.22;5002790;28;20410;-73
2023/02/25 02:57:33;;;;;;;33.63;20.90;;;;;;;3.71;100.00;99419.78;4997401;28;20834;-75
2023/02/25 03:00:17;;;;;;;32.00;20.52;;;;;;;3.72;100.00;99412.84;4986870;28;20045;-75
2023/02/25 03:02:48;;;;;;;;;;;;;;;4.31;100.00;99541.56;4986213;28;20561;-75
2023/02/25 03:05:16;;;;;;;31.58;19.63;;;;;;;4.36;100.00;99522.59;4982553;28;19975;-75
2023/02/25 03:07:54;;;;;;;31.63;20.45;;;;;;;3.74;100.00;99414.63;4985116;28;20054;-75
2023/02/25 03:10:21;;;;;;;37.58;22.02;;;;;;;4.41;100.00;99540.81;4979026;28;20046;-74
2023/02/25 03:12:47;;;;;;;35.35;19.67;;;;;;;3.79;100.00;99409.47;4987259;28;20054;-75
2023/02/25 03:15:13;;;;;;;50.78;22.35;;;;;;;3.90;100.00;99459.78;4985779;28;20134;-74
2023/02/25 03:17:43;;;;;;;43.40;23.70;;;;;;;4.27;100.00;99512.09;4986091;28;20121;-76
2023/02/25 03:20:15;;;;;;;37.13;20.98;;;;;;;4.32;100.00;99522.53;4983111;28;20057;-76
2023/02/25 03:22:45;;;;;;;37.80;21.50;;;;;;;4.41;100.00;99538.22;4987017;28;20061;-75
2023/02/25 03:25:20;;;;;;;39.55;24.75;;;;;;;3.71;100.00;99421.50;4983472;28;20051;-74
2023/02/25 03:27:48;;;;;;;51.95;23.50;;;;;;;4.26;100.00;99527.66;4980386;28;20494;-75
2023/02/25 03:30:26;;;;;;;37.25;20.70;;;;;;;4.38;100.00;99549.47;4983036;28;20057;-75
2023/02/25 03:32:56;;;;;;;34.15;21.42;;;;;;;3.97;100.00;99534.25;4985565;28;20031;-75
2023/02/25 03:35:23;;;;;;;41.65;21.95;;;;;;;3.68;100.00;99424.94;4981488;28;20054;-74
2023/02/25 03:37:51;;;;;;;40.47;22.40;;;;;;;3.90;100.00;99444.19;4977505;28;20093;-75
2023/02/25 03:40:19;;;;;;;35.10;21.77;;;;;;;3.64;100.00;99391.16;4980135;28;20065;-75
2023/02/25 03:43:09;;;;;;;40.05;22.35;;;;;;;3.68;100.00;99406.78;4985858;28;20057;-76
2023/02/25 03:45:38;;;;;;;38.40;22.58;;;;;;;3.94;100.00;99484.91;4979774;28;20054;-74
2023/02/25 03:48:04;;;;;;;37.42;22.00;;;;;;;4.15;100.00;99505.06;4980771;28;20155;-75
2023/02/25 03:50:36;;;;;;;46.88;21.92;;;;;;;3.34;100.00;99369.19;4982789;28;20148;-75
2023/02/25 03:53:03;;;;;;;45.78;21.60;;;;;;;3.45;100.00;99374.53;4982312;28;20042;-75
2023/02/25 03:55:29;;;;;;;43.97;20.67;;;;;;;3.99;100.00;99483.25;4982281;28;20081;-74
2023/02/25 03:57:55;;;;;;;40.53;24.63;;;;;;;4.00;100.00;99466.84;4984952;28;20054;-75
2023/02/25 04:00:21;;;;;;;47.33;24.83;;;;;;;4.21;100.00;99501.66;4985956;28;20057;-75
2023/02/25 04:02:47;;;;;;;37.28;21.83;;;;;;;3.99;100.00;99492.75;4981415;28;20044;-75
2023/02/25 04:05:15;;;;;;;43.72;22.73;;;;;;;3.96;100.00;99454.66;4986307;28;20092;-74
2023/02/25 04:07:40;;;;;;;34.35;23.83;;;;;;;3.93;100.00;99443.38;4978519;28;20054;-73
2023/02/25 04:10:08;;;;;;;41.03;22.92;;;;;;;3.36;100.00;99345.03;4983060;28;20054;-74
2023/02/25 04:12:33;;;;;;;43.42;23.00;;;;;;;3.36;100.00;99352.81;4982134;28;20050;-72
2023/02/25 04:14:59;;;;;;;54.10;23.25;;;;;;;3.99;100.00;99466.81;4987845;28;20050;-75
2023/02/25 04:17:24;;;;;;;34.03;20.77;;;;;;;3.85;100.00;99425.13;4985805;28;20042;-76
2023/02/25 04:19:50;;;;;;;37.13;23.23;;;;;;;4.05;100.00;99448.72;4982613;28;20509;-73
2023/02/25 04:22:15;;;;;;;33.92;19.17;;;;;;;4.02;100.00;99438.28;4983201;28;20054;-74
2023/02/25 04:24:41;;;;;;;52.63;24.10;;;;;;;4.21;100.00;99463.59;4986309;28;20136;-74
2023/02/25 04:27:06;;;;;;;36.42;22.70;;;;;;;3.17;100.00;99306.78;4986840;28;20063;-74
2023/02/25 04:29:32;;;;;;;45.95;21.83;;;;;;;3.22;100.00;99345.72;4986857;28;20852;-76
2023/02/25 04:31:57;;;;;;;37.42;22.92;;;;;;;4.10;100.00;99466.94;4987244;28;20159;-74
2023/02/25 04:34:23;;;;;;;37.65;22.15;;;;;;;3.97;100.00;99439.97;4985456;28;20780;-74
2023/02/25 04:36:49;;;;;;;40.15;21.63;;;;;;;4.01;100.00;99459.91;4965477;28;20042;-74
2023/02/25 04:39:16;;;;;;;40.92;23.30;;;;;;;3.75;100.00;99412.91;4984932;28;20054;-74
2023/02/25 04:41:43;;;;;;;44.17;24.85;;;;;;;4.03;100.00;99460.81;4985627;28;20026;-74
2023/02/25 04:44:09;;;;;;;41.15;23.75;;;;;;;3.29;100.00;99338.03;4987087;28;20054;-74
2023/02/25 04:46:37;;;;;;;47.38;23.55;;;;;;;4.11;100.00;99471.25;4987423;28;20058;-74
2023/02/25 04:49:04;;;;;;;45.15;22.92;;;;;;;3.73;100.00;99373.13;4980214;28;20046;-76
2023/02/25 04:51:30;;;;;;;41.05;23.20;;;;;;;3.55;100.00;99340.06;4986585;28;20464;-74
2023/02/25 04:53:56;;;;;;;40.13;19.42;;;;;;;4.31;100.00;99481.84;4988220;28;20058;-74
2023/02/25 04:56:22;;;;;;;37.97;22.55;;;;;;;3.87;100.00;99438.13;4985046;28;20073;-74
2023/02/25 04:58:47;;;;;;;44.75;24.15;;;;;;;4.26;100.00;99465.34;4983417;28;20074;-74
2023/02/25 05:01:14;;;;;;;41.00;23.17;;;;;;;3.94;100.00;99419.16;4987029;28;20169;-74
2023/02/25 05:03:39;;;;;;;44.47;21.25;;;;;;;3.70;100.00;99419.75;4979380;28;20508;-74
2023/02/25 05:06:06;;;;;;;35.63;20.58;;;;;;;3.24;100.00;99325.88;4987544;28;20149;-74
2023/02/25 05:08:32;;;;;;;37.80;21.45;;;;;;;3.28;100.00;99331.13;4986091;28;20084;-76
2023/02/25 05:10:59;;;;;;;40.22;22.92;;;;;;;3.98;100.00;99445.19;4982994;28;20396;-74
2023/02/25 05:13:25;;;;;;;43.22;23.58;;;;;;;3.94;100.00;99456.38;4985281;28;20088;-73
2023/02/25 05:15:51;;;;;;;42.58;23.35;;;;;;;3.40;100.00;99339.91;4990071;28;20073;-74
2023/02/25 05:18:16;;;;;;;41.78;24.20;;;;;;;3.48;100.00;99330.47;4979757;28;22062;-73
2023/02/25 05:20:43;;;;;;;45.92;22.58;;;;;;;3.25;100.00;99320.69;4985926;28;20061;-76
2023/02/25 05:23:09;;;;;;;54.50;24.92;;;;;;;3.78;100.00;99421.59;4982705;28;20110;-74
2023/02/25 05:25:40;;;;;;;48.63;23.10;;;;;;;3.94;100.00;99453.78;4981227;28;20054;-73
2023/02/25 05:28:10;;;;;;;43.35;22.80;;;;;;;3.95;100.00;99452.03;4985496;28;20074;-75
2023/02/25 05:30:37;;;;;;;37.22;18.92;;;;;;;3.43;100.00;99326.97;4985686;28;20074;-75
2023/02/25 05:33:02;;;;;;;36.20;20.67;;;;;;;4.08;100.00;99445.28;4979270;28;20394;-74
2023/02/25 05:35:28;;;;;;;43.17;22.92;;;;;;;3.56;100.00;99334.88;4981840;28;20039;-75
2023/02/25 05:37:53;;;;;;;46.88;24.40;;;;;;;3.78;100.00;99359.31;4981207;28;20042;-75
2023/02/25 05:40:19;;;;;;;45.40;23.58;;;;;;;3.63;100.00;99330.66;4983455;28;20058;-74
2023/02/25 05:42:48;;;;;;;37.47;22.52;;;;;;;3.95;100.00;99390.63;4981104;28;20126;-75
2023/02/25 05:45:14;;;;;;;34.88;22.48;;;;;;;4.35;100.00;99448.13;4981114;28;20057;-75
2023/02/25 05:47:39;;;;;;;36.75;20.73;;;;;;;3.68;100.00;99334.16;4979984;28;20607;-75
2023/02/25 05:50:05;;;;;;;37.00;22.48;;;;;;;4.52;100.00;99468.19;4982840;28;20055;-74
2023/02/25 05:52:31;;;;;;;48.58;24.50;;;;;;;4.52;100.00;99463.00;4981853;28;20502;-74
2023/02/25 05:54:56;;;;;;;47.65;27.13;;;;;;;3.91;100.00;99349.06;4983870;28;20058;-75
2023/02/25 05:57:22;;;;;;;48.58;23.40;;;;;;;4.68;100.00;99471.78;4982674;28;20054;-74
2023/02/25 05:59:49;;;;;;;44.10;24.23;;;;;;;4.38;100.00;99421.34;4983634;28;20487;-74
2023/02/25 06:02:14;;;;;;;41.47;22.98;;;;;;;4.03;100.00;99346.59;4981549;28;20391;-74
2023/02/25 06:04:40;;;;;;;40.70;22.10;;;;;;;4.86;100.00;99475.41;4976253;28;20069;-75
2023/02/25 06:07:05;;;;;;;40.90;23.67;;;;;;;4.77;100.00;99459.75;4981391;28;20591;-75
2023/02/25 06:09:33;;;;;;;38.45;22.73;;;;;;;5.01;100.00;99479.88;4982856;28;20062;-75
2023/02/25 06:11:59;;;;;;;46.25;22.70;;;;;;;4.99;100.00;99462.53;4974378;28;20052;-74
2023/02/25 06:14:26;;;;;;;41.80;23.98;;;;;;;4.57;100.00;99392.06;4982285;28;20046;-74
2023/02/25 06:16:55;;;;;;;36.95;21.58;;;;;;;5.11;100.00;99488.59;4976924;28;20077;-75
2023/02/25 06:19:27;;;;;;;45.85;21.70;;;;;;;5.06;100.00;99465.16;4982555;28;20058;-76
2023/02/25 06:21:54;;;;;;;36.00;20.23;;;;;;;5.24;100.00;99468.75;4975637;28;20551;-74
2023/02/25 06:24:21;;;;;;;38.80;22.17;;;;;;;5.45;100.00;99484.47;4984786;28;20050;-75
2023/02/25 06:26:46;;;;;;;37.35;21.20;;;;;;;5.45;100.00;99473.19;4980095;28;20030;-76
2023/02/25 06:29:12;;;;;;;39.10;24.20;;;;;;;5.03;100.00;99384.56;4982840;28;20104;-75
2023/02/25 06:31:38;;;;;;;35.08;23.60;;;;;;;5.65;100.00;99479.38;4976970;28;20490;-75
2023/02/25 06:34:04;;;;;;;34.78;22.98;;;;;;;5.12;100.00;99367.25;4977427;28;20053;-73
2023/02/25 06:36:30;;;;;;;33.22;22.45;;;;;;;5.38;100.00;99386.44;4981654;28;20050;-74
2023/02/25 06:38:57;;;;;;;36.35;23.75;;;;;;;5.80;100.00;99465.56;4972076;28;20045;-73
2023/02/25 06:41:24;;;;;;;42.03;22.83;;;;;;;5.81;100.00;99462.09;4984645;28;20085;-75
2023/02/25 06:43:51;;;;;;;56.90;24.15;;;;;;;5.91;100.00;99504.66;4981001;28;20146;-73
2023/02/25 06:46:19;;;;;;;37.17;23.17;;;;;;;5.97;100.00;99463.06;4984009;28;20149;-74
2023/02/25 06:48:45;;;;;;;39.85;20.65;;;;;;;6.17;100.00;99464.84;4977813;28;20050;-74
2023/02/25 06:51:11;;;;;;;33.42;19.13;;;;;;;6.05;100.00;99489.13;4980494;28;20042;-74
2023/02/25 06:53:41;;;;;;;48.30;23.08;;;;;;;6.34;100.00;99517.84;4982680;28;20034;-74
2023/02/25 06:56:09;;;;;;;30.45;20.75;;;;;;;6.42;100.00;99530.91;4986284;28;20050;-74
2023/02/25 06:58:36;;;;;;;36.40;21.58;;;;;;;5.90;100.00;99414.41;4982368;28;20105;-75
2023/02/25 07:01:12;;;;;;;38.13;22.50;;;;;;;5.82;100.00;99403.09;4983914;28;20045;-75
2023/02/25 07:03:38;;;;;;;40.15;26.27;;;;;;;5.93;100.00;99407.47;4974924;28;20054;-75
2023/02/25 07:06:04;;;;;;;39.65;22.63;;;;;;;6.12;100.00;99420.56;4982621;28;20030;-75
2023/02/25 07:08:31;;;;;;;40.92;23.17;;;;;;;6.00;100.00;99397.09;4983409;28;20030;-74
2023/02/25 07:11:09;;;;;;;46.53;23.75;;;;;;;6.21;100.00;99393.66;4988020;28;20046;-73
2023/02/25 07:13:35;;;;;;;45.63;29.92;;;;;;;6.20;100.00;99369.34;4980434;28;20268;-74
2023/02/25 07:16:01;;;;;;;46.67;31.38;;;;;;;6.99;100.00;99490.13;4983155;28;20051;-76
2023/02/25 07:18:27;;;;;;;41.58;22.88;;;;;;;7.25;100.00;99513.56;4975878;28;20478;-75
2023/02/25 07:20:52;;;;;;;41.63;23.40;;;;;;;6.54;100.00;99398.03;4979875;28;20035;-74
2023/02/25 07:23:18;;;;;;;46.03;30.63;;;;;;;7.43;100.00;99525.72;4979840;28;20053;-74
2023/02/25 07:25:43;;;;;;;46.70;25.55;;;;;;;6.89;100.00;99418.84;4980977;28;20433;-76
2023/02/25 07:28:10;;;;;;;38.40;21.88;;;;;;;7.51;100.00;99508.31;4982463;28;20050;-74
2023/02/25 07:30:35;;;;;;;55.38;31.73;;;;;;;6.94;100.00;99391.03;4982970;28;20045;-77
2023/02/25 07:33:01;;;;;;;48.58;32.50;;;;;;;7.60;100.00;99504.81;5002052;28;20378;-77
2023/02/25 07:35:26;;;;;;;55.53;33.83;;;;;;;7.12;100.00;99408.38;4988436;28;20491;-76
2023/02/25 07:37:52;;;;;;;53.90;33.58;;;;;;;7.59;100.00;99477.84;4984681;28;20467;-76
2023/02/25 07:40:18;;;;;;;52.10;32.47;;;;;;;7.91;100.00;99528.22;4983028;28;20435;-83
2023/02/25 07:42:44;;;;;;;41.55;28.48;;;;;;;7.19;100.00;99414.47;4980214;28;20487;-77
2023/02/25 07:45:10;;;;;;;44.15;30.70;;;;;;;7.89;100.00;99525.63;4980346;28;20041;-77
2023/02/25 07:47:37;;;;;;;48.78;29.42;;;;;;;7.70;100.00;99511.75;4973244;28;20137;-79
2023/02/25 07:50:04;;;;;;;43.83;28.00;;;;;;;6.53;100.00;99302.44;4977152;28;20066;-80
2023/02/25 07:52:29;;;;;;;52.53;29.48;;;;;;;7.15;100.00;99377.06;4978895;28;20054;-79
2023/02/25 07:54:56;;;;;;;48.28;30.70;;;;;;;7.38;100.00;99404.84;4979234;28;20060;-75
2023/02/25 07:57:22;;;;;;;53.65;28.05;;;;;;;7.90;100.00;99480.34;4985523;28;20494;-78
2023/02/25 07:59:47;;;;;;;45.03;29.75;;;;;;;7.93;100.00;99508.19;5001672;28;20038;-78
2023/02/25 08:02:13;;;;;;;47.05;28.35;;;;;;;8.20;100.00;99501.97;4985582;28;20034;-78
2023/02/25 08:04:40;;;;;;;43.33;25.95;;;;;;;8.23;100.00;99505.41;4980551;28;20050;-78
2023/02/25 08:07:05;;;;;;;38.42;28.15;;;;;;;8.09;100.00;99525.53;4980560;28;20047;-77
2023/02/25 08:09:31;;;;;;;54.40;28.00;;;;;;;7.06;100.00;99304.06;4981509;28;20741;-75
2023/02/25 08:11:56;;;;;;;46.83;28.25;;;;;;;7.52;100.00;99360.41;4977501;28;20035;-76
2023/02/25 08:14:22;;;;;;;51.55;28.55;;;;;;;8.47;100.00;99503.59;5003643;28;20401;-76
2023/02/25 08:16:48;;;;;;;44.95;28.77;;;;;;;8.53;100.00;99514.00;5006829;28;20749;-76
2023/02/25 08:19:13;;;;;;;49.88;27.90;;;;;;;8.62;100.00;99500.00;4990814;28;20046;-74
2023/02/25 08:21:39;;;;;;;47.10;27.85;;;;;;;8.39;100.00;99502.75;4981785;28;20049;-75
2023/02/25 08:24:06;;;;;;;49.30;30.58;;;;;;;7.77;100.00;99379.41;5000616;28;20034;-75
2023/02/25 08:26:32;;;;;;;47.35;27.83;;;;;;;8.04;100.00;99401.91;4997790;28;20046;-75
2023/02/25 08:28:58;;;;;;;42.40;30.13;;;;;;;8.13;100.00;99386.16;4997152;28;20068;-75
2023/02/25 08:31:24;;;;;;;46.97;30.98;;;;;;;8.88;100.00;99499.81;5000123;28;20073;-75
2023/02/25 08:33:51;;;;;;;45.58;31.27;;;;;;;8.35;100.00;99389.47;5003118;28;20076;-74
2023/02/25 08:36:29;;;;;;;44.55;30.38;;;;;;;8.95;100.00;99495.41;4996195;28;20648;-76
2023/02/25 08:38:56;;;;;;;43.72;30.33;;;;;;;8.90;100.00;99476.25;4995194;28;20038;-76
2023/02/25 08:41:24;;;;;;;52.63;28.98;;;;;;;9.07;100.00;99513.63;5001307;28;20045;-75
2023/02/25 08:43:53;;;;;;;54.80;30.02;;;;;;;8.99;100.00;99436.91;5007791;28;20112;-76
2023/02/25 08:46:20;;;;;;;52.13;30.05;;;;;;;9.48;100.00;99483.53;4995091;28;20058;-75
2023/02/25 08:48:48;;;;;;;48.80;29.38;;;;;;;9.43;100.00;99487.97;4982695;28;20043;-76
2023/02/25 08:51:14;;;;;;;43.22;29.42;;;;;;;9.44;100.00;99447.81;4976458;28;20210;-75
2023/02/25 08:53:40;;;;;;;45.13;28.45;;;;;;;9.77;100.00;99483.25;4984663;28;20084;-76
2023/02/25 08:56:07;;;;;;;51.88;32.45;;;;;;;9.38;100.00;99461.84;4980334;28;20074;-76
2023/02/25 08:58:34;;;;;;;44.72;30.40;;;;;;;9.15;100.00;99372.22;4982491;28;20048;-76
2023/02/25 09:01:00;;;;;;;43.78;29.20;;;;;;;9.04;100.00;99378.44;4982423;28;20529;-75
2023/02/25 09:03:26;;;;;;;34.30;27.90;;;;;;;9.69;100.00;99474.59;4982050;28;20050;-75
2023/02/25 09:05:55;;;;;;;49.08;28.20;;;;;;;9.86;100.00;99485.75;4981656;28;20038;-75
2023/02/25 09:08:21;;;;;;;54.63;28.17;;;;;;;9.80;100.00;99469.22;4983296;28;20057;-74
2023/02/25 09:10:47;;;;;;;49.35;29.20;;;;;;;10.01;100.00;99487.31;4998035;28;20579;-75
2023/02/25 09:13:13;;;;;;;48.90;32.55;;;;;;;9.83;100.00;99477.94;4999247;28;20057;-75
2023/02/25 09:15:39;;;;;;;53.72;30.45;;;;;;;9.23;100.00;99380.88;5001857;28;20109;-75
2023/02/25 09:18:04;;;;;;;39.83;29.48;;;;;;;9.34;100.00;99389.47;4992983;28;20853;-75
2023/02/25 09:20:30;;;;;;;51.65;32.13;;;;;;;8.95;100.00;99360.22;4991647;28;20073;-76
2023/02/25 09:22:55;;;;;;;57.45;31.42;;;;;;;9.74;100.00;99462.31;4967687;28;20093;-74
2023/02/25 09:25:21;;;;;;;52.08;32.75;;;;;;;9.73;100.00;99465.81;4983501;28;20116;-74
2023/02/25 09:27:46;;;;;;;43.05;29.85;;;;;;;9.43;100.00;99412.91;4975643;28;20104;-75
2023/02/25 09:30:13;;;;;;;43.65;31.50;;;;;;;9.42;100.00;99399.84;4978344;28;20030;-74
2023/02/25 09:32:38;;;;;;;51.10;31.63;;;;;;;9.33;100.00;99377.25;4981605;28;20050;-77
2023/02/25 09:35:04;;;;;;;57.05;30.58;;;;;;;9.35;100.00;99345.81;4978776;28;20380;-74
2023/02/25 09:37:30;;;;;;;41.40;30.83;;;;;;;9.91;100.00;99449.00;4984317;28;20058;-75
2023/02/25 09:39:56;;;;;;;41.65;28.88;;;;;;;9.80;100.00;99424.69;4981735;28;20137;-76
2023/02/25 09:42:26;;;;;;;42.88;29.02;;;;;;;9.75;100.00;99424.75;4998891;28;20046;-77
2023/02/25 09:45:00;;;;;;;48.90;29.92;;;;;;;9.89;100.00;99433.28;5004869;28;20046;-77
2023/02/25 09:47:59;;;;;;;54.85;31.02;;;;;;;9.76;100.00;99405.50;4990658;28;20363;-82
2023/02/25 09:50:31;;;;;;;52.78;30.15;;;;;;;9.85;100.00;99442.06;4989093;28;20054;-76
2023/02/25 09:53:22;;;;;;;49.10;30.40;;;;;;;9.80;100.00;99443.03;4998168;28;20042;-75
2023/02/25 09:55:50;;;;;;;44.20;28.42;;;;;;;9.69;100.00;99410.00;4985508;28;20057;-76
2023/02/25 09:58:20;;;;;;;43.63;31.35;;;;;;;9.82;100.00;99436.88;4983060;28;20046;-78
2023/02/25 10:01:00;;;;;;;41.97;31.05;;;;;;;9.87;100.00;99421.09;4982272;28;20130;-79
2023/02/25 10:03:32;;;;;;;48.65;31.77;;;;;;;9.93;100.00;99431.50;4986010;28;20038;-76
2023/02/25 10:06:32;;;;;;;58.85;32.63;;;;;;;9.94;100.00;99428.00;4986074;28;20117;-76
2023/02/25 10:09:19;;;;;;;41.00;29.33;;;;;;;9.87;100.00;99435.06;4987574;28;20107;-75
2023/02/25 10:12:14;;;;;;;57.20;33.20;;;;;;;9.83;100.00;99403.69;4989047;28;20092;-76
2023/02/25 10:15:19;;;;;;;48.40;32.92;;;;;;;9.56;100.00;99363.03;4992463;28;20077;-75
2023/02/25 10:18:22;;;;;;;56.17;34.53;;;;;;;9.15;100.00;99304.19;4982118;28;20086;-77
2023/02/25 10:20:52;;;;;;;50.33;32.72;;;;;;;8.80;100.00;99251.41;5001054;28;20123;-75
2023/02/25 10:23:23;;;;;;;45.40;30.63;;;;;;;9.67;100.00;99366.38;5002342;28;20132;-76
2023/02/25 10:26:02;;;;;;;63.05;34.95;;;;;;;9.22;100.00;99301.44;5001011;28;20046;-76
2023/02/25 10:28:30;;;;;;;56.63;34.70;;;;;;;9.44;100.00;99336.09;4992941;28;20089;-75
2023/02/25 10:31:04;;;;;;;54.40;35.80;;;;;;;8.99;100.00;99285.16;4983505;28;20042;-75
2023/02/25 10:33:32;;;;;;;;;;;;;;;9.55;100.00;99375.22;4979585;28;20053;-76
2023/02/25 10:36:09;;;;;;;51.67;35.35;;;;;;;9.39;100.00;99373.69;4981641;28;19976;-75
2023/02/25 10:38:38;;;;;;;51.65;32.75;;;;;;;9.55;100.00;99369.13;5001369;28;20103;-77
2023/02/25 10:41:04;;;;;;;41.97;30.98;;;;;;;9.62;100.00;99369.06;5001705;28;20053;-75
2023/02/25 10:43:32;;;;;;;56.35;33.75;;;;;;;9.58;100.00;99356.88;4999694;28;20584;-76
2023/02/25 10:46:17;;;;;;;43.53;30.90;;;;;;;9.58;100.00;99356.00;4997098;28;20053;-76
2023/02/25 10:48:51;;;;;;;50.88;33.42;;;;;;;8.78;100.00;99203.47;4971052;28;20060;-75
2023/02/25 10:51:16;;;;;;;58.90;34.33;;;;;;;9.67;100.00;99338.41;5003780;28;20041;-75
2023/02/25 10:53:57;;;;;;;48.35;29.13;;;;;;;9.58;100.00;99340.31;4989520;28;20065;-77
2023/02/25 10:56:44;;;;;;;47.45;30.15;;;;;;;9.77;100.00;99346.16;4981253;28;20054;-76
2023/02/25 10:59:37;;;;;;;48.25;30.58;;;;;;;9.76;100.00;99358.34;4982190;28;20470;-75
2023/02/25 11:02:16;;;;;;;47.15;32.25;;;;;;;9.07;100.00;99221.41;4986953;28;20101;-76
2023/02/25 11:04:44;;;;;;;54.60;33.20;;;;;;;9.03;100.00;99242.38;4985497;28;20050;-78
2023/02/25 11:07:37;;;;;;;50.17;32.35;;;;;;;9.62;100.00;99326.25;4991858;28;20085;-76
2023/02/25 11:10:17;;;;;;;53.92;36.20;;;;;;;9.49;100.00;99338.66;5005054;28;20050;-76
2023/02/25 11:12:47;;;;;;;60.10;34.35;;;;;;;9.22;100.00;99314.53;5004156;28;20057;-76
2023/02/25 11:15:29;;;;;;;54.08;34.15;;;;;;;8.74;100.00;99216.59;4983637;28;20443;-76
2023/02/25 11:18:03;;;;;;;58.17;31.77;;;;;;;9.29;100.00;99295.28;5007763;28;20482;-77
2023/02/25 11:20:31;;;;;;;49.00;31.15;;;;;;;8.76;100.00;99205.25;4986741;28;20050;-76
2023/02/25 11:22:58;;;;;;;51.83;30.08;;;;;;;9.44;100.00;99293.34;4991418;28;20056;-75
2023/02/25 11:25:35;;;;;;;42.80;30.88;;;;;;;9.17;100.00;99223.91;4982208;28;20057;-76
2023/02/25 11:28:01;;;;;;;53.88;31.08;;;;;;;9.57;100.00;99299.28;4986328;28;20062;-78